createdAt,value
2022-08-11T00:01:25.251Z,3.10
2022-08-11T00:04:00.507Z,3.50
2022-08-11T00:06:32.145Z,3.20
2022-08-11T00:09:02.351Z,3.25
2022-08-11T00:11:37.075Z,3.65
2022-08-11T00:14:08.349Z,3.40
2022-08-11T00:16:37.997Z,3.63
2022-08-11T00:19:11.519Z,3.58
2022-08-11T00:22:04.937Z,3.60
2022-08-11T00:24:38.680Z,3.80
2022-08-11T00:27:34.667Z,3.95
2022-08-11T00:30:05.613Z,4.10
2022-08-11T00:32:35.691Z,3.95
2022-08-11T00:35:51.649Z,4.13
2022-08-11T00:38:00.149Z,3.90
2022-08-11T00:40:37.371Z,4.65
2022-08-11T00:43:20.506Z,4.32
2022-08-11T00:46:11.063Z,4.15
2022-08-11T00:48:48.388Z,4.47
2022-08-11T00:51:27.810Z,4.15
2022-08-11T00:54:35.273Z,4.63
2022-08-11T00:57:36.771Z,4.65
2022-08-11T01:00:18.635Z,4.32
2022-08-11T01:02:57.048Z,4.32
2022-08-11T01:05:39.816Z,4.40
2022-08-11T01:08:41.334Z,4.45
2022-08-11T01:11:28.072Z,4.38
2022-08-11T01:14:33.709Z,4.25
2022-08-11T01:17:16.750Z,3.88
2022-08-11T01:20:45.415Z,4.13
2022-08-11T01:23:44.467Z,4.22
2022-08-11T01:26:55.769Z,3.92
2022-08-11T01:29:56.861Z,4.18
2022-08-11T01:33:02.064Z,3.65
2022-08-11T01:35:51.538Z,3.70
2022-08-11T01:38:33.628Z,3.70
2022-08-11T01:41:23.417Z,4.13
2022-08-11T01:44:27.953Z,3.88
2022-08-11T01:47:05.238Z,3.72
2022-08-11T01:50:08.228Z,3.90
2022-08-11T01:52:42.431Z,3.67
2022-08-11T01:55:17.186Z,4.00
2022-08-11T01:57:53.408Z,4.07
2022-08-11T02:00:28.971Z,3.40
2022-08-11T02:03:09.632Z,3.45
2022-08-11T02:06:01.089Z,3.70
2022-08-11T02:08:49.543Z,3.70
2022-08-11T02:11:37.472Z,3.85
2022-08-11T02:14:21.236Z,3.78
2022-08-11T02:17:05.706Z,3.70
2022-08-11T02:19:56.540Z,3.53
2022-08-11T02:22:46.581Z,3.70
2022-08-11T02:25:24.961Z,3.78
2022-08-11T04:11:05.344Z,3.88
2022-08-11T04:13:44.326Z,3.80
2022-08-11T04:16:16.942Z,4.03
2022-08-11T04:19:31.620Z,5.30
2022-08-11T04:22:36.985Z,4.40
2022-08-11T04:25:32.201Z,4.30
2022-08-11T04:28:28.494Z,4.03
2022-08-11T04:31:11.588Z,4.22
2022-08-11T04:34:11.046Z,4.13
2022-08-11T04:37:12.736Z,4.90
2022-08-11T04:40:17.654Z,3.97
2022-08-11T04:43:20.760Z,4.35
2022-08-11T04:46:09.105Z,4.55
2022-08-11T04:49:13.608Z,4.50
2022-08-11T04:52:35.930Z,4.13
2022-08-11T04:55:37.720Z,4.45
2022-08-11T04:58:30.118Z,4.28
2022-08-11T05:01:26.073Z,4.20
2022-08-11T05:04:35.119Z,4.07
2022-08-11T05:07:58.198Z,4.03
2022-08-11T05:10:43.103Z,4.22
2022-08-11T05:13:37.905Z,3.90
2022-08-11T05:16:28.720Z,3.80
2022-08-11T05:19:11.220Z,4.18
2022-08-11T05:21:55.440Z,4.15
2022-08-11T05:24:41.644Z,4.10
2022-08-11T05:27:25.565Z,4.10
2022-08-11T05:30:13.517Z,3.67
2022-08-11T05:33:02.186Z,3.90
2022-08-11T05:36:01.335Z,3.92
2022-08-11T05:38:40.306Z,3.80
2022-08-11T05:41:22.676Z,3.90
2022-08-11T05:44:20.474Z,4.10
2022-08-11T05:47:04.699Z,3.80
2022-08-11T05:49:50.354Z,3.67
2022-08-11T05:52:41.773Z,3.35
2022-08-11T05:55:26.038Z,3.90
2022-08-11T05:57:59.222Z,3.97
2022-08-11T06:00:29.103Z,3.75
2022-08-11T06:03:06.380Z,3.95
2022-08-11T06:05:43.472Z,4.38
2022-08-11T06:08:15.166Z,3.72
2022-08-11T06:10:47.541Z,3.78
2022-08-11T06:13:18.834Z,3.78
2022-08-11T06:15:49.745Z,3.70
2022-08-11T06:18:20.033Z,3.53
2022-08-11T06:20:54.873Z,3.90
2022-08-11T06:23:26.324Z,3.65
2022-08-11T06:25:56.973Z,3.40
2022-08-11T06:28:34.262Z,3.80
2022-08-11T06:31:05.597Z,3.88
2022-08-11T06:33:39.743Z,3.42
2022-08-11T06:36:18.269Z,3.30
2022-08-11T06:38:56.894Z,3.50
2022-08-11T06:41:33.233Z,3.45
2022-08-11T06:44:10.345Z,3.20
2022-08-11T06:46:42.668Z,3.13
2022-08-11T06:49:46.362Z,3.03
2022-08-11T06:52:35.153Z,3.08
2022-08-11T06:55:54.845Z,2.70
2022-08-11T06:58:12.149Z,2.90
2022-08-11T07:00:43.449Z,2.90
2022-08-11T07:03:15.165Z,2.63
2022-08-11T07:05:51.058Z,2.55
2022-08-11T07:08:55.885Z,2.50
2022-08-11T07:12:15.484Z,2.60
2022-08-11T07:15:04.495Z,2.60
2022-08-11T07:17:35.438Z,2.53
2022-08-11T07:20:31.312Z,2.28
2022-08-11T07:23:14.872Z,2.40
2022-08-11T07:26:04.328Z,2.30
2022-08-11T07:28:47.164Z,2.35
2022-08-11T07:34:07.785Z,2.40
2022-08-11T07:36:42.879Z,2.22
2022-08-11T07:39:18.569Z,2.45
2022-08-11T07:41:51.132Z,2.42
2022-08-11T07:47:04.896Z,2.50
2022-08-11T07:49:51.187Z,2.33
2022-08-11T07:52:29.787Z,2.05
2022-08-11T07:55:03.340Z,2.33
2022-08-11T07:58:14.304Z,2.30
2022-08-11T08:00:52.174Z,2.00
2022-08-11T08:03:35.022Z,2.03
2022-08-11T08:09:19.694Z,2.08
2022-08-11T08:12:02.134Z,1.77
2022-08-11T08:17:29.117Z,2.10
2022-08-11T08:19:59.022Z,2.13
2022-08-11T08:22:38.964Z,1.90
2022-08-11T08:25:10.771Z,1.70
2022-08-11T08:27:43.617Z,1.73
2022-08-11T08:30:29.461Z,2.00
2022-08-11T08:33:01.047Z,1.90
2022-08-11T08:35:33.088Z,1.90
2022-08-11T08:38:03.272Z,1.80
2022-08-11T08:40:33.281Z,1.75
2022-08-11T08:43:08.524Z,1.77
2022-08-11T08:45:42.927Z,2.10
2022-08-11T08:48:16.172Z,1.90
2022-08-11T08:51:17.360Z,1.70
2022-08-11T08:53:56.384Z,1.85
2022-08-11T08:56:29.609Z,1.83
2022-08-11T08:59:00.312Z,1.65
2022-08-11T09:01:34.874Z,1.98
2022-08-11T09:04:10.751Z,1.58
2022-08-11T09:06:43.819Z,1.88
2022-08-11T09:09:18.621Z,1.75
2022-08-11T09:11:54.331Z,3.20
2022-08-11T09:14:46.568Z,2.00
2022-08-11T09:19:49.550Z,1.85
2022-08-11T09:22:41.257Z,2.10
2022-08-11T09:25:24.277Z,1.95
2022-08-11T09:27:56.559Z,2.17
2022-08-11T09:30:27.189Z,1.90
2022-08-11T09:33:02.480Z,1.63
2022-08-11T09:35:33.607Z,1.83
2022-08-11T09:38:16.513Z,1.60
2022-08-11T09:40:56.256Z,1.67
2022-08-11T09:43:39.722Z,1.70
2022-08-11T09:46:09.853Z,1.73
2022-08-11T09:48:45.136Z,2.10
2022-08-11T09:51:15.873Z,1.70
2022-08-11T09:54:02.693Z,1.70
2022-08-11T09:56:46.858Z,1.92
2022-08-11T09:59:16.774Z,1.88
2022-08-11T10:01:49.592Z,1.50
2022-08-11T10:04:28.679Z,1.90
2022-08-11T10:07:01.885Z,1.55
2022-08-11T10:09:40.053Z,1.90
2022-08-11T10:12:12.986Z,2.10
2022-08-11T10:14:59.269Z,2.40
2022-08-11T10:17:29.487Z,2.00
2022-08-11T10:20:04.821Z,1.90
2022-08-11T10:22:49.290Z,2.25
2022-08-11T10:25:31.744Z,2.17
2022-08-11T10:28:32.884Z,2.08
2022-08-11T10:31:03.861Z,2.35
2022-08-11T10:33:59.219Z,2.28
2022-08-11T10:39:03.450Z,2.30
2022-08-11T10:42:08.475Z,2.67
2022-08-11T10:44:40.259Z,2.30
2022-08-11T10:47:23.486Z,2.40
2022-08-11T10:52:58.674Z,2.45
2022-08-11T10:55:41.362Z,2.53
2022-08-11T10:58:24.263Z,2.80
2022-08-11T11:00:57.034Z,2.60
2022-08-11T11:03:28.218Z,2.40
2022-08-11T11:06:27.525Z,2.50
2022-08-11T11:09:04.139Z,2.70
2022-08-11T11:11:50.989Z,2.60
2022-08-11T11:14:34.985Z,2.67
2022-08-11T11:17:18.528Z,2.70
2022-08-11T11:19:48.868Z,2.63
2022-08-11T11:22:31.723Z,2.90
2022-08-11T11:25:16.796Z,2.80
2022-08-11T11:27:59.739Z,2.63
2022-08-11T11:30:36.901Z,2.70
2022-08-11T11:33:11.984Z,2.70
2022-08-11T11:35:52.885Z,3.00
2022-08-11T11:38:22.957Z,2.70
2022-08-11T11:41:08.109Z,2.70
2022-08-11T11:43:39.361Z,2.65
2022-08-11T11:46:10.731Z,2.60
2022-08-11T11:48:40.356Z,2.30
2022-08-11T11:51:13.987Z,2.70
2022-08-11T11:53:45.735Z,2.50
2022-08-11T11:56:18.629Z,2.60
2022-08-11T11:59:01.028Z,2.95
2022-08-11T12:01:31.044Z,2.50
2022-08-11T12:04:00.818Z,2.38
2022-08-11T12:06:30.475Z,3.13
2022-08-11T12:09:01.195Z,2.60
2022-08-11T12:11:46.721Z,2.70
2022-08-11T12:14:19.455Z,2.75
2022-08-11T12:16:51.176Z,2.80
2022-08-11T12:19:22.441Z,2.95
2022-08-11T12:22:10.157Z,2.95
2022-08-11T12:24:53.434Z,2.78
2022-08-11T12:27:26.198Z,2.60
2022-08-11T12:29:59.305Z,2.80
2022-08-11T12:32:30.859Z,2.78
2022-08-11T12:35:01.533Z,2.72
2022-08-11T12:37:34.035Z,2.83
2022-08-11T12:40:49.631Z,2.72
2022-08-11T12:43:37.145Z,3.08
2022-08-11T12:46:11.739Z,2.92
2022-08-11T12:49:02.018Z,3.13
2022-08-11T12:52:11.286Z,2.55
2022-08-11T12:54:44.381Z,2.97
2022-08-11T12:57:37.286Z,2.80
2022-08-11T13:00:24.633Z,3.10
2022-08-11T13:03:06.924Z,3.03
2022-08-11T13:05:44.466Z,3.15
2022-08-11T13:08:15.460Z,2.83
2022-08-11T13:10:58.422Z,2.97
2022-08-11T13:13:55.312Z,2.85
2022-08-11T13:16:20.918Z,2.90
2022-08-11T13:18:50.930Z,2.92
2022-08-11T13:21:24.200Z,3.00
2022-08-11T13:24:01.353Z,3.00
2022-08-11T13:26:47.899Z,3.05
2022-08-11T13:29:24.859Z,3.20
2022-08-11T13:31:59.827Z,2.92
2022-08-11T13:34:31.149Z,3.30
2022-08-11T13:37:04.271Z,2.80
2022-08-11T13:39:35.226Z,2.90
2022-08-11T13:42:06.590Z,2.78
2022-08-11T13:44:38.679Z,3.10
2022-08-11T13:47:11.923Z,3.05
2022-08-11T13:52:13.909Z,3.17
2022-08-11T13:54:45.374Z,3.00
2022-08-11T13:58:08.441Z,2.90
2022-08-11T14:00:27.677Z,3.25
2022-08-11T14:03:01.107Z,2.67
2022-08-11T14:05:33.998Z,2.80
2022-08-11T14:08:06.147Z,3.00
2022-08-11T14:10:37.207Z,2.80
2022-08-11T14:13:23.679Z,2.97
2022-08-11T14:15:54.754Z,2.90
2022-08-11T14:18:29.721Z,3.17
2022-08-11T14:21:16.570Z,3.15
2022-08-11T14:23:49.451Z,3.08
2022-08-11T14:26:29.589Z,3.15
2022-08-11T14:29:02.327Z,3.00
2022-08-11T14:31:34.834Z,2.70
2022-08-11T14:34:10.418Z,2.88
2022-08-11T14:36:41.864Z,3.95
2022-08-11T14:39:17.143Z,2.90
2022-08-11T14:42:11.845Z,3.10
2022-08-11T14:44:57.358Z,2.80
2022-08-11T14:47:27.309Z,2.97
2022-08-11T14:50:10.961Z,2.90
2022-08-11T14:52:46.217Z,2.83
2022-08-11T14:55:28.773Z,2.92
2022-08-11T14:57:58.960Z,3.03
2022-08-11T15:00:29.034Z,2.85
2022-08-11T15:03:11.199Z,3.00
2022-08-11T15:05:56.616Z,3.10
2022-08-11T15:08:45.266Z,2.92
2022-08-11T15:11:28.248Z,2.80
2022-08-11T15:13:59.644Z,3.03
2022-08-11T15:16:42.657Z,3.10
2022-08-11T15:19:12.806Z,3.00
2022-08-11T15:21:57.614Z,2.88
2022-08-11T15:24:27.986Z,3.22
2022-08-11T15:27:14.212Z,3.20
2022-08-11T15:29:56.972Z,3.38
2022-08-11T15:32:39.417Z,3.10
2022-08-11T15:35:22.399Z,3.15
2022-08-11T15:37:58.914Z,3.05
2022-08-11T15:40:45.296Z,2.80
2022-08-11T15:43:31.716Z,3.10
2022-08-11T15:46:03.503Z,2.83
2022-08-11T15:48:39.947Z,3.03
2022-08-11T15:51:13.220Z,2.90
2022-08-11T15:53:56.838Z,3.00
2022-08-11T15:56:28.013Z,3.03
2022-08-11T15:59:40.742Z,2.90
2022-08-11T16:02:16.223Z,4.43
2022-08-11T16:04:47.680Z,3.10
2022-08-11T16:07:18.900Z,3.08
2022-08-11T16:10:00.037Z,3.10
2022-08-11T16:12:32.225Z,3.00
2022-08-11T16:15:19.937Z,3.13
2022-08-11T16:17:53.154Z,2.95
2022-08-11T16:20:24.731Z,2.90
2022-08-11T16:23:01.962Z,3.25
2022-08-11T16:26:30.390Z,3.10
2022-08-11T16:28:28.195Z,3.30
2022-08-11T16:30:58.012Z,2.90
2022-08-11T16:33:49.963Z,3.47
2022-08-11T16:36:32.200Z,3.15
2022-08-11T16:39:02.854Z,3.17
2022-08-11T16:41:49.460Z,3.20
2022-08-11T16:44:37.773Z,3.45
2022-08-11T16:47:08.871Z,3.15
2022-08-11T16:49:40.336Z,3.30
2022-08-11T16:52:12.833Z,3.40
2022-08-11T16:54:44.531Z,3.40
2022-08-11T16:57:32.785Z,3.55
2022-08-11T17:00:06.262Z,3.20
2022-08-11T17:02:50.829Z,2.97
2022-08-11T17:05:38.305Z,3.10
2022-08-11T17:08:36.350Z,3.73
2022-08-11T17:11:19.072Z,3.10
2022-08-11T17:13:55.138Z,3.20
2022-08-11T17:16:27.780Z,3.33
2022-08-11T17:19:01.245Z,3.20
2022-08-11T17:21:33.853Z,3.33
2022-08-11T17:24:08.433Z,3.30
2022-08-11T17:26:58.843Z,3.33
2022-08-11T17:29:33.529Z,3.30
2022-08-11T17:32:55.882Z,3.60
2022-08-11T17:38:04.672Z,3.40
2022-08-11T17:40:37.209Z,3.30
2022-08-11T17:43:20.330Z,3.63
2022-08-11T17:46:04.997Z,3.40
2022-08-11T17:48:38.040Z,3.97
2022-08-11T17:51:34.959Z,3.70
2022-08-11T17:54:26.086Z,3.13
2022-08-11T17:57:20.405Z,3.38
2022-08-11T17:59:57.024Z,3.35
2022-08-11T18:02:47.486Z,3.40
2022-08-11T18:05:18.277Z,3.50
2022-08-11T18:08:01.596Z,3.92
2022-08-11T18:10:45.516Z,3.65
2022-08-11T18:13:27.877Z,3.30
2022-08-11T18:16:10.070Z,3.35
2022-08-11T18:18:54.892Z,3.60
2022-08-11T18:21:37.244Z,3.78
2022-08-11T18:24:24.274Z,3.70
2022-08-11T18:27:06.603Z,3.58
2022-08-11T18:29:50.358Z,3.65
2022-08-11T18:32:49.018Z,3.50
2022-08-11T18:35:35.087Z,4.18
2022-08-11T18:38:18.857Z,3.38
2022-08-11T18:41:02.242Z,3.90
2022-08-11T18:43:45.141Z,4.07
2022-08-11T18:46:28.709Z,3.90
2022-08-11T18:49:15.892Z,4.03
2022-08-11T18:52:04.040Z,4.10
2022-08-11T18:54:51.218Z,3.60
2022-08-11T18:57:47.061Z,3.75
2022-08-11T19:00:37.184Z,4.28
2022-08-11T19:03:20.922Z,4.05
2022-08-11T19:09:09.423Z,4.00
2022-08-11T19:11:52.541Z,3.50
2022-08-11T19:14:34.798Z,3.85
2022-08-11T19:17:43.563Z,4.40
2022-08-11T19:20:23.135Z,3.80
2022-08-11T19:23:06.548Z,3.78
2022-08-11T19:25:51.611Z,4.10
2022-08-11T19:28:34.634Z,4.78
2022-08-11T19:31:17.126Z,3.70
2022-08-11T19:34:09.742Z,3.55
2022-08-11T19:36:53.407Z,3.40
2022-08-11T19:39:36.339Z,3.53
2022-08-11T19:42:22.826Z,3.60
2022-08-11T19:45:05.305Z,4.07
2022-08-11T19:47:47.566Z,4.03
2022-08-11T19:50:29.956Z,3.70
2022-08-11T19:53:17.289Z,4.03
2022-08-11T19:56:00.730Z,3.60
2022-08-11T19:58:45.599Z,3.78
2022-08-11T20:01:27.708Z,3.88
2022-08-11T20:04:09.929Z,3.55
2022-08-11T20:06:52.175Z,3.63
2022-08-11T20:10:04.668Z,4.30
2022-08-11T20:12:37.768Z,3.90
2022-08-11T20:15:24.559Z,3.60
2022-08-11T20:18:07.733Z,3.60
2022-08-11T20:20:50.203Z,4.13
2022-08-11T20:23:32.641Z,3.63
2022-08-11T20:26:31.878Z,3.78
2022-08-11T20:29:15.533Z,3.63
2022-08-11T20:32:01.070Z,3.47
2022-08-11T20:34:50.154Z,3.53
2022-08-11T20:37:35.397Z,3.80
2022-08-11T20:40:23.558Z,3.90
2022-08-11T20:43:06.352Z,3.67
2022-08-11T20:46:08.527Z,3.80
2022-08-11T20:48:55.646Z,3.90
2022-08-11T20:51:38.711Z,3.70
2022-08-11T20:54:41.981Z,3.55
2022-08-11T20:57:50.466Z,4.00
2022-08-11T21:00:39.134Z,4.18
2022-08-11T21:03:35.767Z,3.70
2022-08-11T21:06:31.448Z,4.03
2022-08-11T21:09:19.667Z,3.67
2022-08-11T21:12:03.305Z,3.85
2022-08-11T21:14:46.639Z,3.70
2022-08-11T21:17:32.875Z,3.63
2022-08-11T21:20:20.432Z,3.70
2022-08-11T21:23:07.040Z,4.00
2022-08-11T21:25:51.353Z,3.58
2022-08-11T21:28:34.291Z,3.60
2022-08-11T21:31:18.773Z,3.60
2022-08-11T21:34:01.316Z,3.50
2022-08-11T21:36:43.760Z,3.45
2022-08-11T21:39:33.375Z,3.47
2022-08-11T21:42:16.989Z,3.60
2022-08-11T21:45:00.149Z,3.55
2022-08-11T21:47:44.286Z,3.60
2022-08-11T21:50:26.529Z,3.53
2022-08-11T21:53:10.071Z,3.97
2022-08-11T21:55:54.876Z,3.72
2022-08-11T21:58:37.201Z,3.50
2022-08-11T22:01:19.510Z,3.83
2022-08-11T22:04:01.615Z,3.92
2022-08-11T22:06:44.918Z,3.72
2022-08-11T22:09:27.052Z,3.50
2022-08-11T22:12:33.816Z,3.80
2022-08-11T22:15:14.406Z,3.78
2022-08-11T22:17:58.190Z,3.72
2022-08-11T22:20:42.293Z,3.65
2022-08-11T22:26:13.632Z,3.95
2022-08-11T22:28:58.631Z,4.00
2022-08-11T22:31:41.092Z,3.83
2022-08-11T22:34:23.458Z,3.67
2022-08-11T22:37:05.866Z,3.70
2022-08-11T22:40:01.561Z,3.95
2022-08-11T22:42:44.690Z,4.00
2022-08-11T22:45:29.617Z,4.00
2022-08-11T22:48:11.949Z,3.65
2022-08-11T22:50:54.777Z,3.80
2022-08-11T22:53:57.536Z,4.20
2022-08-11T22:56:39.537Z,4.38
2022-08-11T22:59:21.844Z,4.45
2022-08-11T23:02:06.929Z,4.28
2022-08-11T23:04:53.158Z,4.00
2022-08-11T23:07:49.414Z,3.75
2022-08-11T23:10:34.696Z,3.90
2022-08-11T23:13:22.242Z,3.88
2022-08-11T23:16:04.932Z,3.75
2022-08-11T23:18:49.849Z,3.97
2022-08-11T23:21:32.458Z,4.32
2022-08-11T23:24:15.185Z,3.85
2022-08-11T23:26:57.372Z,4.43
2022-08-11T23:29:40.094Z,4.05
2022-08-11T23:32:22.492Z,3.92
2022-08-11T23:35:38.047Z,4.25
2022-08-11T23:38:12.285Z,4.07
2022-08-11T23:40:54.457Z,4.20
2022-08-11T23:43:37.197Z,4.45
2022-08-11T23:46:19.284Z,4.63
2022-08-11T23:49:08.973Z,3.95
2022-08-11T23:51:54.802Z,4.47
2022-08-11T23:54:37.682Z,4.65
2022-08-11T23:57:20.316Z,4.30
